createdAt,value
2023-05-12T00:00:20.674Z,13.48
2023-05-12T00:02:47.587Z,14.33
2023-05-12T00:05:15.610Z,12.50
2023-05-12T00:07:42.173Z,11.25
2023-05-12T00:10:09.678Z,13.05
2023-05-12T00:12:36.669Z,11.60
2023-05-12T00:15:03.476Z,9.90
2023-05-12T00:17:31.222Z,11.68
2023-05-12T00:19:57.786Z,11.57
2023-05-12T00:22:26.878Z,10.15
2023-05-12T00:24:53.442Z,11.57
2023-05-12T00:27:20.032Z,13.57
2023-05-12T00:29:46.629Z,12.45
2023-05-12T00:32:13.209Z,11.25
2023-05-12T00:34:39.918Z,12.98
2023-05-12T00:37:06.663Z,10.77
2023-05-12T00:39:34.680Z,10.03
2023-05-12T00:42:01.234Z,9.90
2023-05-12T00:44:27.927Z,8.00
2023-05-12T00:46:54.738Z,11.82
2023-05-12T00:49:21.611Z,9.15
2023-05-12T00:51:48.384Z,10.83
2023-05-12T00:54:15.999Z,10.35
2023-05-12T00:56:44.004Z,10.40
2023-05-12T00:59:10.739Z,10.48
2023-05-12T01:01:37.655Z,11.43
2023-05-12T01:04:04.414Z,10.83
2023-05-12T01:06:37.959Z,11.40
2023-05-12T01:09:07.254Z,11.20
2023-05-12T01:11:33.862Z,12.30
2023-05-12T01:14:01.996Z,10.90
2023-05-12T01:16:33.627Z,10.93
2023-05-12T01:19:03.797Z,9.73
2023-05-12T01:21:32.921Z,10.00
2023-05-12T01:24:03.366Z,9.98
2023-05-12T01:26:32.154Z,9.23
2023-05-12T01:29:00.482Z,7.97
2023-05-12T01:31:27.756Z,6.10
2023-05-12T01:33:54.352Z,10.48
2023-05-12T01:36:20.908Z,5.25
2023-05-12T01:38:47.491Z,5.32
2023-05-12T01:41:14.092Z,5.63
2023-05-12T01:43:41.997Z,4.50
2023-05-12T01:46:08.624Z,4.72
2023-05-12T01:48:35.331Z,4.63
2023-05-12T01:51:01.885Z,5.07
2023-05-12T01:53:28.412Z,3.70
2023-05-12T01:55:55.125Z,3.45
2023-05-12T01:58:21.708Z,3.70
2023-05-12T02:00:49.609Z,4.13
2023-05-12T02:03:16.317Z,3.42
2023-05-12T02:05:42.900Z,3.70
2023-05-12T02:08:09.470Z,3.40
2023-05-12T02:10:36.085Z,4.68
2023-05-12T02:13:02.654Z,3.35
2023-05-12T02:15:29.401Z,3.90
2023-05-12T02:17:57.460Z,3.93
2023-05-12T02:20:24.124Z,4.00
2023-05-12T02:22:51.083Z,3.95
2023-05-12T02:25:17.834Z,5.22
2023-05-12T02:27:44.388Z,4.72
2023-05-12T02:30:11.399Z,6.00
2023-05-12T02:32:37.981Z,4.85
2023-05-12T02:35:07.203Z,4.30
2023-05-12T02:37:33.793Z,4.78
2023-05-12T02:40:00.399Z,3.60
2023-05-12T02:42:26.941Z,3.70
2023-05-12T02:44:53.500Z,3.60
2023-05-12T02:47:20.073Z,5.90
2023-05-12T02:49:46.766Z,6.40
2023-05-12T02:52:14.676Z,6.55
2023-05-12T02:54:41.515Z,6.90
2023-05-12T02:57:08.076Z,7.45
2023-05-12T02:59:34.634Z,13.88
2023-05-12T03:02:01.481Z,5.75
2023-05-12T03:04:28.047Z,5.47
2023-05-12T03:06:54.686Z,6.23
2023-05-12T03:09:22.787Z,6.45
2023-05-12T03:11:49.447Z,5.80
2023-05-12T03:14:16.021Z,5.25
2023-05-12T03:16:42.820Z,5.20
2023-05-12T03:19:09.564Z,3.53
2023-05-12T03:21:36.179Z,2.88
2023-05-12T03:24:03.036Z,2.58
2023-05-12T03:26:31.014Z,3.30
2023-05-12T03:28:57.540Z,4.05
2023-05-12T03:31:24.191Z,4.00
2023-05-12T03:33:50.755Z,1.77
2023-05-12T03:36:17.312Z,2.33
2023-05-12T03:38:43.942Z,2.20
2023-05-12T03:41:10.611Z,1.70
2023-05-12T03:43:38.712Z,1.60
2023-05-12T03:46:05.395Z,2.45
2023-05-12T03:48:32.004Z,3.58
2023-05-12T03:50:58.578Z,4.13
2023-05-12T03:53:25.154Z,3.35
2023-05-12T03:55:51.854Z,2.47
2023-05-12T03:58:18.386Z,2.20
2023-05-12T04:00:46.458Z,2.47
2023-05-12T04:03:13.063Z,3.70
2023-05-12T04:05:39.790Z,3.63
2023-05-12T04:08:06.488Z,2.30
2023-05-12T04:10:33.056Z,2.47
2023-05-12T04:12:59.749Z,2.50
2023-05-12T04:15:26.697Z,3.28
2023-05-12T04:17:54.720Z,6.40
2023-05-12T04:20:21.576Z,4.33
2023-05-12T04:22:48.385Z,3.00
2023-05-12T04:25:15.034Z,4.00
2023-05-12T04:27:41.592Z,3.45
2023-05-12T04:30:09.052Z,4.60
2023-05-12T04:32:35.668Z,3.23
2023-05-12T04:35:04.009Z,3.38
2023-05-12T04:37:30.807Z,3.53
2023-05-12T04:39:57.350Z,2.75
2023-05-12T04:42:23.935Z,3.15
2023-05-12T04:44:50.503Z,3.47
2023-05-12T04:47:17.063Z,4.20
2023-05-12T04:49:43.599Z,2.00
2023-05-12T04:52:12.118Z,2.20
2023-05-12T04:54:38.744Z,2.03
2023-05-12T04:57:05.945Z,2.27
2023-05-12T04:59:32.530Z,3.13
2023-05-12T05:01:59.432Z,5.07
2023-05-12T05:04:25.982Z,2.03
2023-05-12T05:06:52.574Z,3.35
2023-05-12T05:09:20.549Z,1.60
2023-05-12T05:11:47.314Z,2.60
2023-05-12T05:14:14.305Z,1.90
2023-05-12T05:16:41.013Z,1.60
2023-05-12T05:19:20.002Z,2.90
2023-05-12T05:21:49.240Z,1.80
2023-05-12T05:24:15.787Z,9.27
2023-05-12T05:26:43.715Z,3.40
2023-05-12T05:29:10.396Z,3.05
2023-05-12T05:31:37.029Z,3.60
2023-05-12T05:34:04.108Z,2.83
2023-05-12T05:36:31.578Z,4.20
2023-05-12T05:38:58.372Z,2.53
2023-05-12T05:41:24.970Z,3.95
2023-05-12T05:43:52.821Z,1.80
2023-05-12T05:46:19.413Z,2.10
2023-05-12T05:48:46.090Z,2.88
2023-05-12T05:51:12.761Z,1.95
2023-05-12T05:53:39.395Z,3.58
2023-05-12T05:56:06.232Z,2.75
2023-05-12T05:58:32.808Z,7.17
2023-05-12T06:01:00.771Z,2.00
2023-05-12T06:03:27.600Z,2.60
2023-05-12T06:05:54.318Z,2.83
2023-05-12T06:08:20.982Z,2.45
2023-05-12T06:10:47.624Z,3.83
2023-05-12T06:13:14.386Z,2.55
2023-05-12T06:15:41.026Z,3.75
2023-05-12T06:18:09.044Z,2.25
2023-05-12T06:20:35.621Z,5.43
2023-05-12T06:23:02.205Z,2.40
2023-05-12T06:25:28.815Z,6.18
2023-05-12T06:27:55.493Z,2.13
2023-05-12T06:30:22.079Z,2.42
2023-05-12T06:32:48.692Z,4.70
2023-05-12T06:35:16.806Z,2.30
2023-05-12T06:37:43.615Z,2.40
2023-05-12T06:40:10.562Z,4.75
2023-05-12T06:42:37.126Z,2.78
2023-05-12T06:45:04.188Z,2.33
2023-05-12T06:47:30.735Z,6.87
2023-05-12T06:49:57.414Z,4.57
2023-05-12T06:52:25.311Z,2.60
2023-05-12T06:54:51.865Z,4.07
2023-05-12T06:57:18.449Z,4.47
2023-05-12T06:59:45.192Z,3.43
2023-05-12T07:02:11.866Z,4.13
2023-05-12T07:04:38.439Z,3.40
2023-05-12T07:07:04.954Z,3.97
2023-05-12T07:09:32.914Z,2.90
2023-05-12T07:11:59.533Z,1.90
2023-05-12T07:14:26.322Z,1.52
2023-05-12T07:16:52.877Z,3.25
2023-05-12T07:19:19.622Z,3.17
2023-05-12T07:21:46.195Z,1.92
2023-05-12T07:24:12.765Z,3.03
2023-05-12T07:26:40.859Z,2.92
2023-05-12T07:29:07.416Z,3.92
2023-05-12T07:31:34.076Z,5.28
2023-05-12T07:34:00.748Z,1.80
2023-05-12T07:36:27.352Z,2.07
2023-05-12T07:38:56.230Z,3.75
2023-05-12T07:41:22.810Z,2.67
2023-05-12T07:43:50.741Z,1.52
2023-05-12T07:46:17.399Z,1.80
2023-05-12T07:48:43.970Z,2.80
2023-05-12T07:51:10.601Z,1.50
2023-05-12T07:53:37.221Z,1.85
2023-05-12T07:56:03.934Z,1.50
2023-05-12T07:58:30.501Z,1.60
2023-05-12T08:00:58.393Z,1.57
2023-05-12T08:03:25.308Z,1.88
2023-05-12T08:05:53.464Z,1.85
2023-05-12T08:08:20.042Z,1.92
2023-05-12T08:10:46.613Z,3.05
2023-05-12T08:13:13.176Z,3.57
2023-05-12T08:15:39.724Z,1.85
2023-05-12T08:18:07.788Z,2.60
2023-05-12T08:20:34.248Z,1.77
2023-05-12T08:23:00.797Z,1.50
2023-05-12T08:25:27.401Z,2.27
2023-05-12T08:27:54.062Z,1.48
2023-05-12T08:30:20.999Z,1.92
2023-05-12T08:32:47.631Z,1.92
2023-05-12T08:35:15.626Z,2.63
2023-05-12T08:37:42.268Z,1.70
2023-05-12T08:40:15.580Z,5.00
2023-05-12T08:42:43.630Z,5.43
2023-05-12T08:45:11.689Z,2.63
2023-05-12T08:47:38.945Z,1.90
2023-05-12T08:50:06.728Z,2.67
2023-05-12T08:52:38.465Z,2.53
2023-05-12T08:55:05.871Z,1.88
2023-05-12T08:57:33.122Z,1.95
2023-05-12T09:00:02.808Z,2.28
2023-05-12T09:02:44.636Z,2.30
2023-05-12T09:05:15.214Z,6.10
2023-05-12T09:07:44.209Z,3.55
2023-05-12T09:10:29.927Z,2.30
2023-05-12T09:13:04.326Z,4.00
2023-05-12T09:15:35.737Z,4.60
2023-05-12T09:18:02.352Z,2.55
2023-05-12T09:20:31.967Z,1.70
2023-05-12T09:23:12.774Z,4.63
2023-05-12T09:25:39.611Z,3.10
2023-05-12T09:28:06.270Z,1.80
2023-05-12T09:30:32.837Z,3.78
2023-05-12T09:33:06.568Z,2.35
2023-05-12T09:35:38.372Z,3.50
2023-05-12T09:38:10.696Z,3.03
2023-05-12T09:40:37.842Z,1.70
2023-05-12T09:43:05.990Z,2.67
2023-05-12T09:45:34.488Z,2.20
2023-05-12T09:48:07.940Z,2.17
2023-05-12T09:50:44.202Z,2.20
2023-05-12T09:53:14.760Z,1.90
2023-05-12T09:55:43.319Z,1.88
2023-05-12T09:58:10.837Z,5.22
2023-05-12T10:00:58.533Z,2.08
2023-05-12T10:03:27.983Z,3.42
2023-05-12T10:05:58.604Z,2.43
2023-05-12T10:08:30.029Z,4.25
2023-05-12T10:10:59.457Z,2.85
2023-05-12T10:13:26.327Z,5.63
2023-05-12T10:15:55.934Z,5.57
2023-05-12T10:18:23.697Z,1.77
2023-05-12T10:20:52.022Z,3.15
2023-05-12T10:23:19.596Z,2.75
2023-05-12T10:25:47.840Z,2.30
2023-05-12T10:28:14.395Z,4.13
2023-05-12T10:30:42.510Z,3.03
2023-05-12T10:33:09.486Z,2.40
2023-05-12T10:35:37.452Z,3.08
2023-05-12T10:38:06.922Z,3.33
2023-05-12T10:40:33.743Z,2.55
2023-05-12T10:43:02.113Z,2.67
2023-05-12T10:45:36.324Z,2.65
2023-05-12T10:48:07.366Z,4.00
2023-05-12T10:50:34.084Z,6.90
2023-05-12T10:53:00.943Z,10.82
2023-05-12T10:55:31.858Z,5.83
2023-05-12T10:58:06.634Z,3.53
2023-05-12T11:00:44.884Z,2.30
2023-05-12T11:03:14.852Z,4.82
2023-05-12T11:05:42.985Z,3.25
2023-05-12T11:08:11.588Z,3.67
2023-05-12T11:10:41.406Z,3.95
2023-05-12T11:13:09.845Z,3.95
2023-05-12T11:15:36.632Z,2.78
2023-05-12T11:18:03.417Z,3.13
2023-05-12T11:20:31.030Z,3.17
2023-05-12T11:22:57.877Z,6.88
2023-05-12T11:25:26.457Z,3.75
2023-05-12T11:27:53.131Z,4.18
2023-05-12T11:30:21.345Z,3.22
2023-05-12T11:32:48.340Z,3.47
2023-05-12T11:35:16.688Z,2.20
2023-05-12T11:37:44.439Z,3.17
2023-05-12T11:40:18.392Z,2.30
2023-05-12T11:42:46.275Z,2.47
2023-05-12T11:45:21.309Z,4.50
2023-05-12T11:47:48.122Z,3.15
2023-05-12T11:50:20.684Z,3.33
2023-05-12T11:52:47.523Z,2.42
2023-05-12T11:55:20.727Z,4.32
2023-05-12T11:57:56.843Z,3.43
2023-05-12T12:00:29.760Z,4.25
2023-05-12T12:03:06.408Z,3.15
2023-05-12T12:05:33.191Z,5.07
2023-05-12T12:08:05.224Z,5.40
2023-05-12T12:10:32.257Z,2.67
2023-05-12T12:13:00.169Z,2.22
2023-05-12T12:15:28.494Z,3.85
2023-05-12T12:17:55.147Z,5.22
2023-05-12T12:20:21.912Z,2.30
2023-05-12T12:23:01.172Z,2.70
2023-05-12T12:25:27.768Z,3.10
2023-05-12T12:27:54.323Z,5.90
2023-05-12T12:30:21.086Z,3.75
2023-05-12T12:32:49.120Z,4.63
2023-05-12T12:35:15.709Z,4.27
2023-05-12T12:37:42.275Z,2.40
2023-05-12T12:40:09.524Z,4.10
2023-05-12T12:42:37.315Z,4.50
2023-05-12T12:45:04.975Z,4.57
2023-05-12T12:47:31.773Z,3.60
2023-05-12T12:49:59.793Z,4.72
2023-05-12T12:52:26.459Z,2.97
2023-05-12T12:54:53.089Z,4.03
2023-05-12T12:57:19.668Z,3.00
2023-05-12T12:59:46.281Z,5.17
2023-05-12T13:02:13.100Z,4.75
2023-05-12T13:04:39.698Z,5.00
2023-05-12T13:07:07.666Z,4.47
2023-05-12T13:09:34.296Z,2.95
2023-05-12T13:12:01.005Z,4.23
2023-05-12T13:14:27.580Z,3.00
2023-05-12T13:16:54.177Z,3.40
2023-05-12T13:19:20.828Z,3.67
2023-05-12T13:21:47.446Z,4.45
2023-05-12T13:24:15.413Z,3.60
2023-05-12T13:26:41.959Z,2.80
2023-05-12T13:29:08.561Z,3.15
2023-05-12T13:31:35.198Z,3.20
2023-05-12T13:34:01.973Z,4.22
2023-05-12T13:36:28.793Z,3.10
2023-05-12T13:38:55.361Z,2.53
2023-05-12T13:41:23.345Z,6.68
2023-05-12T13:43:51.281Z,3.22
2023-05-12T13:46:17.898Z,2.63
2023-05-12T13:48:44.628Z,3.83
2023-05-12T13:51:11.272Z,3.42
2023-05-12T13:53:37.841Z,5.72
2023-05-12T13:56:04.826Z,6.63
2023-05-12T13:58:32.816Z,3.53
2023-05-12T14:00:59.384Z,3.73
2023-05-12T14:03:26.069Z,4.55
2023-05-12T14:05:52.798Z,3.55
2023-05-12T14:08:19.393Z,3.95
2023-05-12T14:10:45.968Z,5.35
2023-05-12T14:13:37.803Z,7.70
2023-05-12T14:16:05.246Z,4.45
2023-05-12T14:18:32.236Z,4.22
2023-05-12T14:20:58.990Z,3.55
2023-05-12T14:23:25.659Z,3.00
2023-05-12T14:25:52.338Z,5.50
2023-05-12T14:28:19.003Z,3.25
2023-05-12T14:30:47.038Z,4.38
2023-05-12T14:33:13.736Z,6.50
2023-05-12T14:35:40.628Z,4.22
2023-05-12T14:38:07.207Z,2.53
2023-05-12T14:40:33.815Z,3.92
2023-05-12T14:43:00.396Z,4.28
2023-05-12T14:45:27.035Z,3.05
2023-05-12T14:47:55.077Z,4.55
2023-05-12T14:50:22.225Z,3.17
2023-05-12T14:52:49.333Z,4.40
2023-05-12T14:55:16.005Z,4.15
2023-05-12T14:57:42.913Z,3.22
2023-05-12T15:00:11.453Z,7.13
2023-05-12T15:02:38.202Z,5.37
2023-05-12T15:05:08.167Z,2.40
2023-05-12T15:07:34.804Z,3.15
2023-05-12T15:10:01.506Z,5.47
2023-05-12T15:12:28.220Z,5.30
2023-05-12T15:14:54.834Z,4.77
2023-05-12T15:17:21.397Z,1.80
2023-05-12T15:19:47.954Z,3.92
2023-05-12T15:22:16.456Z,3.90
2023-05-12T15:24:43.037Z,3.28
2023-05-12T15:27:09.726Z,3.73
2023-05-12T15:29:38.750Z,2.15
2023-05-12T15:32:06.165Z,5.82
2023-05-12T15:34:32.964Z,6.05
2023-05-12T15:36:59.801Z,3.72
2023-05-12T15:39:27.775Z,3.73
2023-05-12T15:41:54.376Z,7.03
2023-05-12T15:44:20.955Z,4.30
2023-05-12T15:46:47.570Z,4.50
2023-05-12T15:49:14.558Z,3.00
2023-05-12T15:51:41.208Z,5.20
2023-05-12T15:54:09.545Z,3.95
2023-05-12T15:56:38.229Z,3.58
2023-05-12T15:59:04.998Z,5.47
2023-05-12T16:01:31.781Z,5.05
2023-05-12T16:03:58.913Z,3.30
2023-05-12T16:06:25.617Z,4.25
2023-05-12T16:08:52.307Z,6.88
2023-05-12T16:11:18.986Z,3.97
2023-05-12T16:13:52.709Z,3.75
2023-05-12T16:16:41.296Z,5.33
2023-05-12T16:19:11.685Z,4.28
2023-05-12T16:21:47.181Z,3.72
2023-05-12T16:24:20.053Z,7.15
2023-05-12T16:27:22.443Z,6.35
2023-05-12T16:30:05.442Z,6.70
2023-05-12T16:32:38.040Z,5.65
2023-05-12T16:35:14.081Z,3.08
2023-05-12T16:37:45.300Z,4.80
2023-05-12T16:43:34.320Z,5.07
2023-05-12T16:46:27.915Z,6.85
2023-05-12T16:52:54.669Z,3.40
2023-05-12T16:55:24.745Z,4.07
2023-05-12T16:57:51.702Z,4.10
2023-05-12T17:00:18.765Z,5.55
2023-05-12T17:02:46.844Z,4.32
2023-05-12T17:05:13.756Z,4.22
2023-05-12T17:07:40.289Z,6.70
2023-05-12T17:10:16.367Z,4.63
2023-05-12T17:12:42.971Z,3.38
2023-05-12T17:15:11.039Z,12.18
2023-05-12T17:17:37.787Z,4.05
2023-05-12T17:20:07.013Z,4.53
2023-05-12T17:22:33.593Z,4.20
2023-05-12T17:25:00.189Z,3.17
2023-05-12T17:27:32.273Z,4.30
2023-05-12T17:29:58.914Z,3.13
2023-05-12T17:32:25.592Z,4.22
2023-05-12T17:34:52.148Z,2.97
2023-05-12T17:37:20.079Z,2.80
2023-05-12T17:39:46.689Z,3.38
2023-05-12T17:42:13.328Z,3.85
2023-05-12T17:44:39.912Z,3.00
2023-05-12T17:47:06.828Z,4.67
2023-05-12T17:49:33.480Z,2.95
2023-05-12T17:52:00.111Z,5.32
2023-05-12T17:54:28.528Z,6.43
2023-05-12T17:56:55.237Z,7.50
2023-05-12T17:59:21.933Z,4.17
2023-05-12T18:01:48.627Z,5.18
2023-05-12T18:04:15.179Z,12.25
2023-05-12T18:06:41.826Z,15.80
2023-05-12T18:09:09.115Z,13.05
2023-05-12T18:11:37.072Z,7.23
2023-05-12T18:14:03.625Z,4.88
2023-05-12T18:16:30.333Z,3.15
2023-05-12T18:18:57.098Z,4.38
2023-05-12T18:21:23.771Z,4.15
2023-05-12T18:23:50.398Z,8.83
2023-05-12T18:26:17.014Z,4.15
2023-05-12T18:28:44.940Z,3.58
2023-05-12T18:33:41.098Z,5.07
2023-05-12T18:36:07.914Z,4.07
2023-05-12T18:38:34.490Z,5.43
2023-05-12T18:41:01.096Z,5.20
2023-05-12T18:43:27.725Z,4.70
2023-05-12T18:45:55.642Z,5.15
2023-05-12T18:48:22.305Z,5.07
2023-05-12T18:50:48.966Z,5.68
2023-05-12T18:53:15.704Z,7.38
2023-05-12T18:55:42.229Z,5.35
2023-05-12T18:58:08.780Z,4.28
2023-05-12T19:00:35.624Z,5.47
2023-05-12T19:03:03.800Z,3.53
2023-05-12T19:05:30.976Z,6.80
2023-05-12T19:07:57.566Z,3.92
2023-05-12T19:10:24.132Z,3.83
2023-05-12T19:12:51.069Z,7.40
2023-05-12T19:15:17.833Z,4.70
2023-05-12T19:17:44.592Z,7.95
2023-05-12T19:20:12.887Z,4.18
2023-05-12T19:22:45.312Z,5.25
2023-05-12T19:25:16.801Z,7.23
2023-05-12T19:27:44.025Z,6.75
2023-05-12T19:30:11.929Z,3.88
2023-05-12T19:32:38.827Z,6.38
2023-05-12T19:35:06.412Z,5.82
2023-05-12T19:37:36.028Z,6.80
2023-05-12T19:40:02.701Z,6.43
2023-05-12T19:42:29.400Z,4.85
2023-05-12T19:44:59.179Z,4.88
2023-05-12T19:47:26.630Z,4.78
2023-05-12T19:49:53.710Z,5.00
2023-05-12T19:52:20.503Z,5.15
2023-05-12T19:54:50.951Z,5.05
2023-05-12T19:57:17.674Z,5.20
2023-05-12T19:59:44.387Z,4.70
2023-05-12T20:02:14.349Z,5.07
2023-05-12T20:04:41.236Z,4.45
2023-05-12T20:07:08.202Z,5.03
2023-05-12T20:09:49.318Z,4.97
2023-05-12T20:12:17.704Z,5.40
2023-05-12T20:14:44.319Z,6.90
2023-05-12T20:17:11.842Z,8.32
2023-05-12T20:19:38.895Z,8.10
2023-05-12T20:22:05.592Z,7.65
2023-05-12T20:24:32.304Z,5.40
2023-05-12T20:26:58.890Z,8.97
2023-05-12T20:29:27.034Z,9.43
2023-05-12T20:31:53.687Z,8.60
2023-05-12T20:34:20.689Z,7.10
2023-05-12T20:36:47.468Z,7.47
2023-05-12T20:39:14.831Z,11.00
2023-05-12T20:41:43.248Z,7.93
2023-05-12T20:44:09.887Z,6.20
2023-05-12T20:46:38.618Z,8.20
2023-05-12T20:49:05.813Z,6.18
2023-05-12T20:51:32.422Z,8.87
2023-05-12T20:53:59.020Z,5.38
2023-05-12T20:56:25.696Z,6.55
2023-05-12T20:58:52.338Z,9.30
2023-05-12T21:01:19.104Z,5.70
2023-05-12T21:03:47.252Z,10.33
2023-05-12T21:06:13.931Z,6.78
2023-05-12T21:08:40.603Z,5.97
2023-05-12T21:11:13.676Z,9.57
2023-05-12T21:13:40.236Z,6.40
2023-05-12T21:16:06.896Z,7.43
2023-05-12T21:18:33.575Z,6.75
2023-05-12T21:21:01.553Z,7.78
2023-05-12T21:23:28.238Z,7.25
2023-05-12T21:25:55.295Z,7.18
2023-05-12T21:28:21.867Z,4.50
2023-05-12T21:30:48.497Z,5.43
2023-05-12T21:33:15.080Z,6.60
2023-05-12T21:35:41.881Z,5.80
2023-05-12T21:38:09.834Z,5.90
2023-05-12T21:40:36.325Z,8.50
2023-05-12T21:43:02.995Z,8.57
2023-05-12T21:45:29.653Z,7.20
2023-05-12T21:47:56.293Z,6.32
2023-05-12T21:50:23.118Z,10.23
2023-05-12T21:52:50.287Z,9.00
2023-05-12T21:55:18.384Z,10.88
2023-05-12T21:57:44.952Z,7.78
2023-05-12T22:00:12.271Z,7.97
2023-05-12T22:02:38.922Z,7.40
2023-05-12T22:05:06.581Z,7.93
2023-05-12T22:07:33.178Z,7.38
2023-05-12T22:10:00.420Z,7.13
2023-05-12T22:12:28.394Z,8.95
2023-05-12T22:14:54.982Z,8.35
2023-05-12T22:17:21.550Z,8.07
2023-05-12T22:19:48.304Z,9.25
2023-05-12T22:22:14.945Z,8.10
2023-05-12T22:24:41.581Z,8.93
2023-05-12T22:27:08.136Z,8.63
2023-05-12T22:29:36.041Z,8.30
2023-05-12T22:32:02.863Z,9.85
2023-05-12T22:34:29.412Z,7.43
2023-05-12T22:36:56.085Z,10.73
2023-05-12T22:39:22.655Z,8.63
2023-05-12T22:41:49.223Z,12.83
2023-05-12T22:44:15.875Z,8.45
2023-05-12T22:46:43.827Z,9.63
2023-05-12T22:49:10.461Z,9.68
2023-05-12T22:51:37.052Z,9.00
2023-05-12T22:54:03.672Z,12.63
2023-05-12T22:56:30.268Z,14.32
2023-05-12T22:58:56.812Z,10.95
2023-05-12T23:01:23.471Z,8.75
2023-05-12T23:03:51.578Z,7.65
2023-05-12T23:06:18.182Z,12.40
2023-05-12T23:08:44.845Z,11.60
2023-05-12T23:11:11.414Z,7.57
2023-05-12T23:13:38.317Z,11.32
2023-05-12T23:16:06.075Z,9.48
2023-05-12T23:18:32.695Z,10.17
2023-05-12T23:21:00.632Z,13.05
2023-05-12T23:23:27.263Z,9.82
2023-05-12T23:25:53.822Z,10.95
2023-05-12T23:28:20.658Z,15.52
2023-05-12T23:30:47.202Z,9.73
2023-05-12T23:33:13.957Z,9.38
2023-05-12T23:35:40.760Z,7.95
2023-05-12T23:38:08.696Z,11.73
2023-05-12T23:40:35.266Z,11.43
2023-05-12T23:43:01.922Z,7.50
2023-05-12T23:45:29.315Z,9.07
2023-05-12T23:47:56.036Z,9.63
2023-05-12T23:50:23.111Z,8.35
2023-05-12T23:52:51.001Z,13.23
2023-05-12T23:55:18.978Z,9.00
2023-05-12T23:57:45.572Z,9.77
